Time;durP1;ratioP1;P1;durP2;ratioP2;P2;SDS_P1;SDS_P2;PMS_P1;PMS_P2;Temp;Humidity;BMP_temperature;BMP_pressure;BME280_temperature;BME280_humidity;BME280_pressure;Samples;Min_cycle;Max_cycle;Signal;HPM_P1;HPM_P2
2022/11/03 00:01:42;;;;;;;20.43;6.20;;;16.30;65.40;;;;;;4958026;28;20692;-91
2022/11/03 00:04:15;;;;;;;12.47;4.20;;;16.20;65.40;;;;;;4976359;28;20215;-92
2022/11/03 00:06:49;;;;;;;15.30;5.17;;;16.20;65.60;;;;;;4974434;28;20968;-93
2022/11/03 00:09:25;;;;;;;18.00;5.20;;;16.20;65.60;;;;;;4977254;28;20217;-96
2022/11/03 00:11:56;;;;;;;16.97;4.07;;;16.20;65.60;;;;;;4977546;28;20210;-95
2022/11/03 00:14:27;;;;;;;14.50;4.50;;;16.20;65.50;;;;;;4975827;28;20206;-92
2022/11/03 00:16:59;;;;;;;14.03;3.43;;;16.20;65.70;;;;;;4974078;28;20679;-91
2022/11/03 00:19:26;;;;;;;13.17;4.53;;;16.20;65.70;;;;;;4975947;28;20215;-93
2022/11/03 00:21:57;;;;;;;17.90;4.77;;;16.10;65.60;;;;;;4975218;28;20197;-92
2022/11/03 00:24:25;;;;;;;16.50;5.30;;;16.10;65.80;;;;;;4964171;28;20248;-92
2022/11/03 00:26:54;;;;;;;12.93;4.07;;;16.10;65.70;;;;;;4977052;28;20187;-94
2022/11/03 00:29:23;;;;;;;17.70;5.43;;;16.10;65.80;;;;;;4976763;28;20203;-93
2022/11/03 00:31:58;;;;;;;13.60;4.23;;;16.10;66.00;;;;;;4990626;28;20184;-92
2022/11/03 00:34:30;;;;;;;14.03;3.60;;;16.00;66.10;;;;;;4990734;28;20251;-92
2022/11/03 00:36:58;;;;;;;14.23;4.17;;;16.00;66.10;;;;;;4982305;28;20608;-90
2022/11/03 00:39:26;;;;;;;17.37;5.00;;;16.00;66.10;;;;;;4976509;28;20219;-92
2022/11/03 00:41:57;;;;;;;14.43;4.53;;;16.00;66.20;;;;;;4976932;28;20247;-92
2022/11/03 00:44:26;;;;;;;15.07;4.10;;;16.00;66.50;;;;;;4980001;28;20291;-94
2022/11/03 00:46:56;;;;;;;16.90;5.50;;;16.00;66.40;;;;;;4977900;28;20218;-92
2022/11/03 00:49:25;;;;;;;20.50;5.20;;;16.00;66.40;;;;;;4978996;28;20207;-92
2022/11/03 00:51:53;;;;;;;18.73;5.87;;;15.90;66.60;;;;;;4977197;28;20228;-92
2022/11/03 00:54:21;;;;;;;19.73;5.37;;;15.90;66.70;;;;;;4969840;28;20213;-91
2022/11/03 00:56:50;;;;;;;13.63;4.33;;;15.90;66.90;;;;;;4973401;28;20244;-91
2022/11/03 00:59:20;;;;;;;14.97;4.50;;;15.90;66.80;;;;;;4974847;28;20239;-92
2022/11/03 01:01:48;;;;;;;18.43;4.83;;;15.90;67.00;;;;;;4981393;28;20213;-90
2022/11/03 01:07:04;;;;;;;9.43;3.27;;;15.90;66.90;;;;;;4977747;28;20349;-94
2022/11/03 01:09:42;;;;;;;18.10;4.80;;;15.90;67.10;;;;;;4981988;28;20297;-92
2022/11/03 01:12:12;;;;;;;15.23;4.43;;;15.90;67.40;;;;;;4983466;28;20279;-93
2022/11/03 01:14:42;;;;;;;11.77;3.67;;;15.80;67.10;;;;;;4978641;28;20604;-92
2022/11/03 01:17:12;;;;;;;10.67;3.80;;;15.80;67.40;;;;;;4982289;28;20209;-92
2022/11/03 01:19:41;;;;;;;11.83;3.90;;;15.80;67.50;;;;;;4982013;28;20203;-93
2022/11/03 01:22:10;;;;;;;14.83;4.90;;;15.80;67.60;;;;;;4979701;28;20210;-91
2022/11/03 01:24:41;;;;;;;14.13;3.97;;;15.80;67.60;;;;;;4969805;28;20266;-93
2022/11/03 01:27:17;;;;;;;16.83;4.80;;;15.80;67.70;;;;;;4975883;28;20234;-94
2022/11/03 01:29:47;;;;;;;7.57;3.30;;;15.80;68.00;;;;;;4987281;28;20218;-92
2022/11/03 01:32:16;;;;;;;11.17;3.50;;;15.80;68.00;;;;;;4981923;28;20254;-92
2022/11/03 01:34:46;;;;;;;18.53;5.03;;;15.80;68.30;;;;;;4981297;28;20244;-95
2022/11/03 01:37:29;;;;;;;11.97;3.90;;;15.80;68.20;;;;;;4979286;28;20206;-90
2022/11/03 01:40:01;;;;;;;14.10;3.90;;;15.80;68.50;;;;;;4979057;28;20237;-92
2022/11/03 01:42:28;;;;;;;12.23;3.43;;;15.80;68.70;;;;;;4967508;28;20195;-92
2022/11/03 01:45:01;;;;;;;15.80;4.77;;;15.90;68.70;;;;;;4971379;28;20220;-92
2022/11/03 01:47:32;;;;;;;12.97;3.60;;;15.80;69.00;;;;;;4976897;28;20291;-91
2022/11/03 01:50:03;;;;;;;16.43;4.80;;;15.90;68.90;;;;;;4975638;28;20223;-92
2022/11/03 01:52:42;;;;;;;14.80;4.77;;;15.90;69.00;;;;;;4979905;28;20207;-91
2022/11/03 01:55:19;;;;;;;16.33;4.27;;;15.90;69.50;;;;;;4976524;28;20252;-91
2022/11/03 01:57:54;;;;;;;11.30;3.93;;;16.00;69.50;;;;;;4964727;28;20322;-94
2022/11/03 02:00:22;;;;;;;13.47;4.40;;;16.00;69.50;;;;;;4969753;28;20236;-93
2022/11/03 02:02:51;;;;;;;13.27;3.80;;;16.00;69.50;;;;;;4980586;28;20299;-91
2022/11/03 02:05:25;;;;;;;9.40;3.53;;;16.00;69.40;;;;;;4970206;28;20202;-91
2022/11/03 02:07:58;;;;;;;11.60;4.03;;;16.00;69.60;;;;;;4982210;28;20194;-90
2022/11/03 02:10:27;;;;;;;12.17;3.83;;;16.10;70.00;;;;;;4983422;28;20230;-92
2022/11/03 02:12:57;;;;;;;13.37;4.40;;;16.10;69.70;;;;;;4982646;28;20680;-93
2022/11/03 02:15:25;;;;;;;15.37;4.27;;;16.10;70.00;;;;;;4977569;28;20234;-94
2022/11/03 02:17:57;;;;;;;12.80;3.70;;;16.10;69.80;;;;;;4965295;28;20200;-93
2022/11/03 02:20:36;;;;;;;20.87;5.67;;;16.10;69.90;;;;;;4971075;28;20218;-94
2022/11/03 02:23:40;;;;;;;12.07;3.83;;;16.20;70.20;;;;;;4987662;28;20205;-90
2022/11/03 02:26:40;;;;;;;11.17;3.37;;;16.20;70.60;;;;;;4964808;28;20261;-95
2022/11/03 02:29:10;;;;;;;17.13;5.50;;;16.20;70.30;;;;;;4960907;28;20210;-91
2022/11/03 02:31:44;;;;;;;12.07;3.67;;;16.20;70.10;;;;;;4977437;28;20199;-90
2022/11/03 02:34:16;;;;;;;13.63;4.03;;;16.20;70.20;;;;;;4977801;28;20235;-93
2022/11/03 02:36:51;;;;;;;12.93;4.07;;;16.30;70.20;;;;;;4980917;28;20626;-93
2022/11/03 02:39:29;;;;;;;13.30;4.23;;;16.30;70.30;;;;;;4973752;28;20204;-95
2022/11/03 02:42:07;;;;;;;10.13;3.50;;;16.30;70.60;;;;;;4968666;28;20199;-93
2022/11/03 02:44:43;;;;;;;8.13;3.00;;;16.30;70.70;;;;;;4978400;28;20238;-95
2022/11/03 02:47:15;;;;;;;17.93;4.77;;;16.30;70.60;;;;;;4976921;28;20213;-91
2022/11/03 02:49:50;;;;;;;11.60;3.57;;;16.30;70.50;;;;;;4978826;28;20207;-91
2022/11/03 02:52:42;;;;;;;19.43;5.57;;;16.40;70.90;;;;;;4971997;28;20241;-91
2022/11/03 02:55:19;;;;;;;11.37;4.17;;;16.40;71.00;;;;;;4971801;28;20229;-91
2022/11/03 02:57:53;;;;;;;20.23;4.07;;;16.40;70.90;;;;;;4966440;28;20269;-91
2022/11/03 03:00:23;;;;;;;13.97;4.07;;;16.40;70.90;;;;;;4977814;28;20217;-91
2022/11/03 03:03:00;;;;;;;12.07;4.53;;;16.40;71.10;;;;;;4975109;28;20203;-91
2022/11/03 03:05:35;;;;;;;9.53;3.30;;;16.40;71.40;;;;;;4970812;28;20220;-94
2022/11/03 03:08:10;;;;;;;13.53;3.73;;;16.40;71.10;;;;;;4982578;28;20205;-93
2022/11/03 03:10:41;;;;;;;12.33;4.10;;;16.50;71.20;;;;;;4969816;28;20212;-91
2022/11/03 03:13:12;;;;;;;15.10;5.00;;;16.50;71.40;;;;;;4981106;28;20207;-93
2022/11/03 03:15:48;;;;;;;13.50;4.77;;;16.50;71.60;;;;;;4981697;28;20231;-90
2022/11/03 03:18:25;;;;;;;14.23;3.80;;;16.50;71.70;;;;;;4986198;28;20221;-96
2022/11/03 03:21:06;;;;;;;4.40;2.03;;;16.50;71.80;;;;;;4975493;28;20202;-92
2022/11/03 03:23:46;;;;;;;11.17;3.17;;;16.60;71.80;;;;;;4982567;28;20232;-94
2022/11/03 03:26:23;;;;;;;13.87;4.07;;;16.60;71.80;;;;;;4980545;28;20280;-92
2022/11/03 03:28:57;;;;;;;11.03;3.67;;;16.60;72.00;;;;;;4980672;28;20206;-92
2022/11/03 03:31:29;;;;;;;8.30;3.07;;;16.60;71.90;;;;;;4980583;28;20748;-93
2022/11/03 03:33:58;;;;;;;15.77;4.90;;;16.60;71.80;;;;;;4977094;28;20232;-92
2022/11/03 03:36:30;;;;;;;8.93;3.07;;;16.70;71.90;;;;;;4977656;28;20364;-95
2022/11/03 03:39:01;;;;;;;15.60;5.03;;;16.70;72.00;;;;;;4977087;28;20219;-92
2022/11/03 03:41:31;;;;;;;14.93;4.43;;;16.70;72.30;;;;;;4976856;28;20224;-91
2022/11/03 03:44:04;;;;;;;13.33;3.83;;;16.70;72.20;;;;;;4967069;28;20229;-91
2022/11/03 03:46:38;;;;;;;13.77;3.77;;;16.70;72.20;;;;;;4973293;28;20608;-90
2022/11/03 03:49:07;;;;;;;12.80;4.23;;;16.70;72.30;;;;;;4979059;28;20236;-88
2022/11/03 03:51:36;;;;;;;10.30;4.20;;;16.70;72.10;;;;;;4978158;28;20208;-91
2022/11/03 03:54:08;;;;;;;11.60;3.43;;;16.70;72.40;;;;;;4978525;28;20215;-91
2022/11/03 03:56:42;;;;;;;11.20;4.27;;;16.70;72.40;;;;;;4978315;28;20233;-93
2022/11/03 03:59:11;;;;;;;13.93;4.00;;;16.80;72.50;;;;;;4975508;28;20321;-92
2022/11/03 04:01:43;;;;;;;12.33;3.87;;;16.80;72.50;;;;;;4976310;28;20237;-91
2022/11/03 04:04:13;;;;;;;10.10;4.07;;;16.80;72.60;;;;;;4980433;28;20203;-89
2022/11/03 04:06:40;;;;;;;10.07;3.77;;;16.80;72.60;;;;;;4974856;28;20216;-94
2022/11/03 04:09:17;;;;;;;12.03;4.50;;;16.80;72.70;;;;;;4983465;28;20213;-94
2022/11/03 04:23:25;;;;;;;13.70;4.70;;;16.80;73.20;;;;;;4978811;28;20210;-92
2022/11/03 04:25:56;;;;;;;13.33;4.33;;;16.80;72.90;;;;;;4982317;28;20418;-91
2022/11/03 04:28:29;;;;;;;12.40;4.23;;;16.90;73.40;;;;;;4977812;28;20206;-92
2022/11/03 04:30:58;;;;;;;16.37;4.13;;;16.90;73.50;;;;;;4977117;28;20202;-93
2022/11/03 04:33:30;;;;;;;9.20;3.30;;;16.90;73.50;;;;;;4981923;28;20738;-93
2022/11/03 04:36:09;;;;;;;12.50;3.60;;;16.90;73.60;;;;;;4968042;28;20237;-92
2022/11/03 04:38:43;;;;;;;11.10;3.97;;;16.90;73.60;;;;;;4981439;28;20598;-93
2022/11/03 04:41:16;;;;;;;7.27;3.00;;;16.90;73.20;;;;;;4973445;28;20299;-93
2022/11/03 04:43:48;;;;;;;9.10;3.27;;;16.90;73.20;;;;;;4977769;28;20226;-94
2022/11/03 04:46:22;;;;;;;11.27;4.47;;;16.90;73.10;;;;;;4980125;28;20220;-93
2022/11/03 04:49:01;;;;;;;11.20;4.47;;;16.90;73.00;;;;;;4978844;28;20217;-95
2022/11/03 04:51:35;;;;;;;9.30;3.63;;;16.90;73.00;;;;;;4981921;28;20625;-95
2022/11/03 04:54:15;;;;;;;8.97;3.27;;;16.90;73.10;;;;;;4972210;28;20255;-95
2022/11/03 04:56:44;;;;;;;11.63;4.33;;;16.80;72.90;;;;;;4972651;28;20242;-92
2022/11/03 04:59:17;;;;;;;6.97;3.07;;;16.90;72.90;;;;;;4966374;28;20214;-93
2022/11/03 05:01:46;;;;;;;12.77;3.93;;;16.80;73.20;;;;;;4978343;28;20309;-92
2022/11/03 05:04:18;;;;;;;16.20;4.50;;;16.70;73.10;;;;;;4974828;28;21086;-94
2022/11/03 05:06:58;;;;;;;10.53;3.73;;;16.70;73.10;;;;;;4975606;28;20234;-92
2022/11/03 05:09:28;;;;;;;17.20;5.47;;;16.70;73.10;;;;;;4985071;28;20199;-91
2022/11/03 05:11:58;;;;;;;11.17;4.17;;;16.70;73.40;;;;;;4989612;28;20276;-94
2022/11/03 05:14:30;;;;;;;9.17;2.87;;;16.60;73.30;;;;;;4986008;28;20663;-92
2022/11/03 05:16:59;;;;;;;12.27;3.73;;;16.60;73.30;;;;;;4973640;28;20287;-93
2022/11/03 05:19:36;;;;;;;14.53;4.60;;;16.60;73.30;;;;;;4978497;28;20210;-95
2022/11/03 05:22:18;;;;;;;11.80;3.20;;;16.60;73.60;;;;;;4980953;28;20677;-96
2022/11/03 05:24:48;;;;;;;11.90;3.33;;;16.50;73.70;;;;;;4975591;28;20640;-92
2022/11/03 05:27:21;;;;;;;8.43;3.27;;;16.50;73.60;;;;;;4980595;28;20199;-91
2022/11/03 05:29:54;;;;;;;13.60;3.90;;;16.50;74.10;;;;;;4974214;28;20231;-95
2022/11/03 05:32:25;;;;;;;14.33;4.50;;;16.40;73.70;;;;;;4974849;28;20223;-93
2022/11/03 05:34:56;;;;;;;8.07;3.40;;;16.40;74.10;;;;;;4972252;28;20601;-93
2022/11/03 05:37:31;;;;;;;18.30;5.03;;;16.40;74.30;;;;;;4962235;28;20235;-94
2022/11/03 05:40:03;;;;;;;22.10;6.33;;;16.40;74.60;;;;;;4963549;28;20227;-92
2022/11/03 05:42:44;;;;;;;14.27;4.60;;;16.40;74.50;;;;;;4973377;28;20209;-91
2022/11/03 05:45:22;;;;;;;18.60;5.00;;;16.40;74.60;;;;;;4966290;28;20210;-91
2022/11/03 05:47:54;;;;;;;10.83;3.10;;;16.40;74.50;;;;;;4960733;28;20213;-92
2022/11/03 05:50:44;;;;;;;15.13;3.73;;;16.40;74.70;;;;;;4981850;28;20239;-90
2022/11/03 05:53:33;;;;;;;16.77;4.80;;;16.40;75.20;;;;;;4966587;28;20460;-92
2022/11/03 05:56:21;;;;;;;12.33;3.43;;;16.40;75.30;;;;;;4973757;28;20183;-91
2022/11/03 05:58:50;;;;;;;11.23;3.50;;;16.40;75.30;;;;;;4982940;28;20209;-91
2022/11/03 06:01:36;;;;;;;16.43;5.37;;;16.40;74.90;;;;;;4975525;28;20264;-92
2022/11/03 06:04:16;;;;;;;9.07;3.63;;;16.40;75.40;;;;;;4986107;28;20381;-93
2022/11/03 06:07:02;;;;;;;8.03;3.27;;;16.40;75.40;;;;;;4986639;28;20208;-93
2022/11/03 06:09:36;;;;;;;9.30;3.57;;;16.30;75.70;;;;;;4980305;28;20674;-91
2022/11/03 06:12:11;;;;;;;14.40;4.47;;;16.40;75.30;;;;;;4975302;28;20195;-92
2022/11/03 06:14:38;;;;;;;14.60;3.30;;;16.40;75.60;;;;;;4983809;28;20212;-91
2022/11/03 06:17:12;;;;;;;13.17;4.27;;;16.40;75.40;;;;;;4975991;28;20269;-92
2022/11/03 06:19:42;;;;;;;10.97;3.97;;;16.40;75.60;;;;;;4974743;28;20208;-93
2022/11/03 06:22:18;;;;;;;9.87;3.40;;;16.40;75.80;;;;;;4977055;28;20368;-92
2022/11/03 06:24:49;;;;;;;16.03;4.00;;;16.40;76.00;;;;;;4974029;28;20215;-92
2022/11/03 06:27:22;;;;;;;14.10;4.43;;;16.40;75.80;;;;;;4968080;28;20212;-92
2022/11/03 06:29:52;;;;;;;14.40;4.87;;;16.40;76.20;;;;;;4964720;28;20275;-91
2022/11/03 06:32:30;;;;;;;14.67;4.03;;;16.40;76.00;;;;;;4975662;28;20251;-91
2022/11/03 06:35:14;;;;;;;10.57;4.27;;;16.40;76.30;;;;;;4973573;28;20237;-96
2022/11/03 06:37:45;;;;;;;15.10;4.30;;;16.40;76.30;;;;;;4966881;28;20267;-94
2022/11/03 06:40:33;;;;;;;13.10;3.97;;;16.40;76.20;;;;;;4978998;28;20235;-92
2022/11/03 06:43:24;;;;;;;16.93;5.50;;;16.40;76.80;;;;;;4973954;28;20210;-95
2022/11/03 06:45:53;;;;;;;17.80;4.83;;;16.40;76.30;;;;;;4969689;28;20208;-92
2022/11/03 06:48:27;;;;;;;17.73;5.33;;;16.40;76.30;;;;;;4969066;28;20269;-93
2022/11/03 06:50:58;;;;;;;16.87;5.60;;;16.40;76.60;;;;;;4964876;28;20214;-93
2022/11/03 06:53:33;;;;;;;22.03;6.47;;;16.40;76.50;;;;;;4975603;28;20205;-92
2022/11/03 06:56:04;;;;;;;13.43;4.43;;;16.40;76.60;;;;;;4976205;28;20209;-92
2022/11/03 06:58:35;;;;;;;12.43;4.10;;;16.40;76.40;;;;;;4977917;28;20236;-91
2022/11/03 07:01:21;;;;;;;13.23;4.60;;;16.40;76.40;;;;;;4981044;28;20194;-92
2022/11/03 07:04:13;;;;;;;24.27;6.30;;;16.40;76.70;;;;;;4980950;28;20211;-93
2022/11/03 07:06:46;;;;;;;15.50;4.57;;;16.40;76.70;;;;;;4978772;28;20212;-92
2022/11/03 07:09:21;;;;;;;14.07;4.23;;;16.40;76.70;;;;;;4968664;28;20294;-92
2022/11/03 07:11:50;;;;;;;12.33;4.07;;;16.40;76.90;;;;;;4969389;28;20285;-91
2022/11/03 07:14:21;;;;;;;15.10;4.47;;;16.40;76.80;;;;;;4968713;28;20248;-92
2022/11/03 07:16:54;;;;;;;18.73;4.63;;;16.40;76.80;;;;;;4965399;28;20250;-92
2022/11/03 07:19:27;;;;;;;16.80;5.10;;;16.40;77.10;;;;;;4959528;28;20204;-91
2022/11/03 07:21:56;;;;;;;16.80;5.73;;;16.40;77.00;;;;;;4971135;28;20325;-94
2022/11/03 07:24:29;;;;;;;18.10;5.00;;;16.50;77.00;;;;;;4969013;28;20529;-92
2022/11/03 07:27:05;;;;;;;15.07;4.70;;;16.40;77.10;;;;;;4970704;28;20622;-93
2022/11/03 07:29:34;;;;;;;15.57;4.93;;;16.40;76.90;;;;;;4971698;28;20198;-92
2022/11/03 07:35:07;;;;;;;15.03;4.03;;;16.40;76.70;;;;;;4964749;28;20245;-92
2022/11/03 07:37:35;;;;;;;13.97;4.27;;;16.50;76.80;;;;;;4977301;28;20295;-91
2022/11/03 07:40:05;;;;;;;12.77;4.33;;;16.50;76.80;;;;;;4963452;28;20218;-91
2022/11/03 07:42:32;;;;;;;23.17;7.40;;;16.50;76.90;;;;;;4974354;28;20212;-91
2022/11/03 07:45:00;;;;;;;14.50;4.17;;;16.50;76.70;;;;;;4969788;28;20719;-92
2022/11/03 07:47:28;;;;;;;21.97;6.93;;;16.50;76.70;;;;;;4983601;28;20213;-89
2022/11/03 07:49:58;;;;;;;43.27;7.67;;;16.50;76.80;;;;;;4972628;28;20203;-91
2022/11/03 07:52:27;;;;;;;24.97;6.47;;;16.50;76.80;;;;;;4972808;28;20207;-90
2022/11/03 07:54:56;;;;;;;14.10;4.37;;;16.50;77.10;;;;;;4955470;28;20211;-90
2022/11/03 07:57:30;;;;;;;11.97;3.57;;;16.50;77.10;;;;;;4958364;28;20219;-94
2022/11/03 08:00:01;;;;;;;15.30;4.90;;;16.50;77.30;;;;;;4972939;28;20235;-91
2022/11/03 08:02:33;;;;;;;12.37;4.43;;;16.50;76.90;;;;;;4972251;28;20254;-89
2022/11/03 08:05:02;;;;;;;17.47;5.30;;;16.50;76.90;;;;;;4969753;28;20230;-90
2022/11/03 08:07:32;;;;;;;15.73;5.37;;;16.50;76.90;;;;;;4970237;28;20649;-91
2022/11/03 08:09:59;;;;;;;16.30;5.27;;;16.50;76.90;;;;;;4972833;28;20205;-91
2022/11/03 08:12:26;;;;;;;11.90;4.23;;;16.50;76.90;;;;;;4964156;28;20227;-91
2022/11/03 08:14:54;;;;;;;22.87;6.50;;;16.50;76.90;;;;;;4969401;28;20201;-91
2022/11/03 08:17:22;;;;;;;17.73;5.30;;;16.50;77.10;;;;;;4962760;28;20273;-90
2022/11/03 08:19:51;;;;;;;15.57;4.23;;;16.50;77.20;;;;;;4962071;28;20218;-91
2022/11/03 08:22:18;;;;;;;12.13;4.03;;;16.50;77.20;;;;;;4956570;28;20214;-91
2022/11/03 08:24:47;;;;;;;12.23;4.67;;;16.50;77.00;;;;;;4957997;28;20700;-90
2022/11/03 08:27:14;;;;;;;27.40;5.70;;;16.60;77.10;;;;;;4974805;28;20204;-90
2022/11/03 08:29:41;;;;;;;31.53;8.20;;;16.60;77.00;;;;;;4962441;28;20207;-90
2022/11/03 08:32:09;;;;;;;16.27;4.90;;;16.60;77.20;;;;;;4962326;28;20206;-90
2022/11/03 08:34:41;;;;;;;18.13;5.23;;;16.60;77.30;;;;;;4967075;28;20203;-90
2022/11/03 08:37:09;;;;;;;13.47;4.67;;;16.60;77.10;;;;;;4967220;28;20218;-90
2022/11/03 08:39:44;;;;;;;10.97;4.20;;;16.70;77.10;;;;;;4973590;28;20218;-92
2022/11/03 08:42:11;;;;;;;11.33;3.37;;;16.70;77.10;;;;;;4972717;28;20204;-90
2022/11/03 08:44:38;;;;;;;16.70;4.33;;;16.70;76.90;;;;;;4967346;28;20199;-92
2022/11/03 08:47:07;;;;;;;16.00;4.30;;;16.70;77.00;;;;;;4985386;28;20211;-93
2022/11/03 08:49:42;;;;;;;16.33;4.27;;;16.70;76.90;;;;;;4982347;28;20208;-91
2022/11/03 08:52:15;;;;;;;14.90;4.23;;;16.70;77.00;;;;;;4974909;28;20205;-90
2022/11/03 08:54:43;;;;;;;11.30;3.87;;;16.70;76.90;;;;;;4971779;28;20286;-90
2022/11/03 08:57:15;;;;;;;15.30;3.53;;;16.70;77.00;;;;;;4968988;28;20349;-95
2022/11/03 08:59:46;;;;;;;10.50;3.87;;;16.70;76.80;;;;;;4961685;28;20213;-93
2022/11/03 09:02:14;;;;;;;18.00;5.70;;;16.80;77.00;;;;;;4966487;28;20206;-91
2022/11/03 09:04:47;;;;;;;12.87;4.27;;;16.80;77.10;;;;;;4975821;28;20245;-91
2022/11/03 09:07:19;;;;;;;23.20;6.07;;;16.90;77.10;;;;;;4971203;28;20210;-90
2022/11/03 09:09:50;;;;;;;13.07;3.97;;;16.90;77.10;;;;;;4973709;28;20214;-93
2022/11/03 09:12:39;;;;;;;18.57;4.47;;;16.90;77.00;;;;;;4974574;28;20216;-91
2022/11/03 09:17:52;;;;;;;21.73;6.27;;;16.90;77.10;;;;;;4975149;28;20240;-92
2022/11/03 09:20:22;;;;;;;18.10;4.40;;;17.00;77.10;;;;;;4968121;28;20204;-92
2022/11/03 09:22:52;;;;;;;14.80;4.67;;;17.00;77.20;;;;;;4976559;28;20582;-90
2022/11/03 09:25:19;;;;;;;16.17;4.00;;;17.10;77.40;;;;;;4973599;28;20206;-90
2022/11/03 09:27:46;;;;;;;12.43;4.63;;;17.10;77.10;;;;;;4980032;28;20221;-91
2022/11/03 09:30:19;;;;;;;16.40;4.97;;;17.20;76.70;;;;;;4982274;28;20206;-95
2022/11/03 09:32:50;;;;;;;10.53;4.30;;;17.30;76.50;;;;;;4976208;28;20281;-93
2022/11/03 09:35:21;;;;;;;15.20;4.93;;;17.40;76.20;;;;;;4977586;28;21018;-95
2022/11/03 09:37:50;;;;;;;15.07;4.77;;;17.40;75.30;;;;;;4984327;28;20258;-93
2022/11/03 09:40:20;;;;;;;15.47;4.40;;;17.50;75.00;;;;;;4985637;28;20233;-92
2022/11/03 09:42:48;;;;;;;9.03;3.87;;;17.50;74.70;;;;;;4983740;28;20215;-92
2022/11/03 09:45:16;;;;;;;14.43;5.30;;;17.50;74.30;;;;;;4976699;28;20210;-96
2022/11/03 09:47:45;;;;;;;19.80;4.67;;;17.60;74.30;;;;;;4979464;28;20208;-95
2022/11/03 09:50:16;;;;;;;37.27;8.30;;;17.60;74.00;;;;;;4977670;28;20215;-91
2022/11/03 09:52:47;;;;;;;14.63;4.70;;;17.60;73.70;;;;;;4973826;28;20213;-92
2022/11/03 09:55:26;;;;;;;15.93;4.60;;;17.60;74.50;;;;;;4975528;28;20286;-95
2022/11/03 09:57:55;;;;;;;14.10;4.40;;;17.50;73.40;;;;;;4979111;28;20234;-92
2022/11/03 10:00:25;;;;;;;13.97;4.53;;;17.50;74.20;;;;;;4978687;28;20207;-93
2022/11/03 10:02:52;;;;;;;18.97;6.03;;;17.60;73.00;;;;;;4971314;28;20209;-91
2022/11/03 10:05:23;;;;;;;12.27;3.93;;;17.60;73.00;;;;;;4976223;28;20217;-92
2022/11/03 10:08:01;;;;;;;17.83;4.90;;;17.60;72.50;;;;;;4979540;28;20747;-91
2022/11/03 10:10:30;;;;;;;18.33;4.47;;;17.60;72.30;;;;;;4976955;28;20271;-90
2022/11/03 10:12:59;;;;;;;9.80;3.30;;;17.50;72.40;;;;;;4980167;28;20230;-93
2022/11/03 10:15:27;;;;;;;16.87;5.27;;;17.50;72.40;;;;;;4975233;28;20202;-92
2022/11/03 10:17:56;;;;;;;15.13;4.40;;;17.50;72.30;;;;;;4976909;28;20233;-91
2022/11/03 10:20:24;;;;;;;60.63;11.53;;;17.40;72.30;;;;;;4978729;28;20210;-92
2022/11/03 10:22:55;;;;;;;13.80;5.27;;;17.40;72.40;;;;;;4977198;28;20239;-93
2022/11/03 10:25:43;;;;;;;12.30;3.93;;;17.40;72.30;;;;;;4979157;28;20659;-94
2022/11/03 10:28:17;;;;;;;14.07;4.97;;;17.40;72.20;;;;;;4979354;28;20218;-91
2022/11/03 10:31:06;;;;;;;11.57;4.10;;;17.40;72.10;;;;;;4977993;28;20209;-93
2022/11/03 10:33:35;;;;;;;10.17;3.93;;;17.40;71.90;;;;;;4982513;28;20254;-93
2022/11/03 10:36:13;;;;;;;14.43;4.93;;;17.40;72.00;;;;;;4985651;28;20199;-93
2022/11/03 10:38:47;;;;;;;6.70;2.97;;;17.40;72.10;;;;;;4986551;28;20231;-95
2022/11/03 10:41:16;;;;;;;12.83;4.83;;;17.40;72.00;;;;;;4979547;28;20694;-92
2022/11/03 10:44:00;;;;;;;13.43;3.87;;;17.40;72.10;;;;;;4981898;28;20201;-94
2022/11/03 10:46:28;;;;;;;13.10;4.17;;;17.40;71.80;;;;;;4960414;28;20223;-92
2022/11/03 10:49:08;;;;;;;9.77;3.17;;;17.50;72.00;;;;;;4971162;28;20557;-92
2022/11/03 10:51:37;;;;;;;11.60;3.87;;;17.50;71.70;;;;;;4975444;28;20228;-92
2022/11/03 10:54:14;;;;;;;13.57;3.83;;;17.50;72.10;;;;;;4971998;28;20210;-91
2022/11/03 10:59:39;;;;;;;13.73;4.10;;;17.50;72.10;;;;;;4972518;28;20248;-93
2022/11/03 11:02:22;;;;;;;11.77;4.33;;;17.60;72.80;;;;;;4974068;28;20206;-93
2022/11/03 11:04:49;;;;;;;14.00;4.13;;;17.70;72.10;;;;;;4972466;28;20651;-92
2022/11/03 11:10:20;;;;;;;14.47;5.20;;;17.80;71.80;;;;;;4950811;28;20249;-92
2022/11/03 11:13:24;;;;;;;11.67;4.30;;;18.00;71.60;;;;;;4971112;28;20717;-96
2022/11/03 11:15:54;;;;;;;11.10;4.43;;;18.00;71.20;;;;;;4956037;28;20201;-92
2022/11/03 11:19:10;;;;;;;16.67;4.90;;;18.10;71.10;;;;;;4958532;28;20241;-95
2022/11/03 11:22:07;;;;;;;16.33;5.33;;;18.20;70.40;;;;;;4916614;29;20211;-91
2022/11/03 11:25:06;;;;;;;10.67;3.60;;;18.30;70.40;;;;;;4914309;29;20239;-95
2022/11/03 11:27:59;;;;;;;13.60;4.40;;;18.30;70.40;;;;;;4923761;29;20325;-91
2022/11/03 11:31:03;;;;;;;14.77;4.17;;;18.40;70.40;;;;;;4914991;29;20219;-89
2022/11/03 11:33:43;;;;;;;10.97;3.67;;;18.50;71.00;;;;;;4916818;29;20207;-92
2022/11/03 11:36:28;;;;;;;9.57;3.67;;;18.70;70.80;;;;;;4918511;29;20355;-94
2022/11/03 11:39:04;;;;;;;8.10;3.37;;;18.80;69.90;;;;;;4903197;29;20716;-93
2022/11/03 11:42:08;;;;;;;9.33;4.00;;;19.00;69.50;;;;;;4914331;29;20210;-95
2022/11/03 11:44:58;;;;;;;12.43;3.90;;;19.10;69.10;;;;;;4930860;28;20755;-93
2022/11/03 11:47:49;;;;;;;12.60;4.40;;;19.20;68.30;;;;;;4958803;28;20243;-93
2022/11/03 11:50:34;;;;;;;9.90;3.60;;;19.40;69.10;;;;;;4961261;29;20211;-95
2022/11/03 11:53:18;;;;;;;15.13;5.60;;;19.50;67.60;;;;;;4960213;28;20210;-93
2022/11/03 11:55:50;;;;;;;10.43;3.93;;;19.70;67.80;;;;;;4968086;28;20206;-93
2022/11/03 11:58:56;;;;;;;14.63;4.70;;;19.80;67.80;;;;;;4957449;28;20257;-91
2022/11/03 12:01:32;;;;;;;10.17;3.93;;;19.90;66.80;;;;;;4971368;28;20251;-93
2022/11/03 12:04:02;;;;;;;11.53;4.17;;;20.00;66.10;;;;;;4980345;28;20210;-92
2022/11/03 12:06:41;;;;;;;15.93;4.43;;;20.00;65.40;;;;;;4985767;28;20218;-92
2022/11/03 12:09:17;;;;;;;7.63;3.30;;;20.00;65.60;;;;;;4977788;28;20203;-93
2022/11/03 12:11:46;;;;;;;9.73;4.03;;;20.00;64.90;;;;;;4979943;28;20321;-91
2022/11/03 12:14:25;;;;;;;13.97;4.67;;;20.00;65.60;;;;;;4977482;28;20217;-92
2022/11/03 12:16:59;;;;;;;13.20;4.80;;;19.90;64.80;;;;;;4980610;28;20210;-93
2022/11/03 12:19:38;;;;;;;11.07;3.50;;;19.90;64.50;;;;;;4983102;28;20245;-92
2022/11/03 12:22:12;;;;;;;11.30;3.37;;;19.90;64.60;;;;;;4991292;28;20193;-93
2022/11/03 12:25:23;;;;;;;6.73;3.17;;;19.90;65.00;;;;;;4982496;28;20192;-94
2022/11/03 12:30:29;;;;;;;5.77;2.80;;;19.80;65.10;;;;;;5008912;28;20219;-94
2022/11/03 12:32:57;;;;;;;13.87;4.17;;;19.80;64.90;;;;;;5001192;28;20293;-92
2022/11/03 12:35:46;;;;;;;12.77;4.23;;;19.80;65.20;;;;;;5000136;28;20210;-96
2022/11/03 12:38:15;;;;;;;11.40;3.93;;;19.70;64.60;;;;;;4998141;28;20233;-94
2022/11/03 12:40:43;;;;;;;9.57;4.03;;;19.70;65.20;;;;;;5000257;28;20616;-93
2022/11/03 12:43:52;;;;;;;14.17;4.97;;;19.70;64.70;;;;;;4999639;28;20190;-93
2022/11/03 12:46:24;;;;;;;10.87;3.70;;;19.70;63.80;;;;;;4997504;28;20217;-90
2022/11/03 12:48:57;;;;;;;19.67;5.43;;;19.60;64.20;;;;;;4995700;28;20281;-92
2022/11/03 12:51:46;;;;;;;13.33;4.50;;;19.60;64.40;;;;;;4998997;28;20209;-96
2022/11/03 12:54:14;;;;;;;12.90;4.63;;;19.50;64.70;;;;;;4994509;28;20202;-93
2022/11/03 12:56:43;;;;;;;13.73;4.70;;;19.40;64.30;;;;;;5001309;28;20220;-92
2022/11/03 12:59:11;;;;;;;11.03;3.90;;;19.40;64.20;;;;;;5004675;28;20252;-91
2022/11/03 13:02:12;;;;;;;12.87;4.30;;;19.40;64.00;;;;;;5001765;28;20213;-91
2022/11/03 13:07:37;;;;;;;10.47;4.13;;;19.30;64.50;;;;;;4991130;28;20249;-92
2022/11/03 13:10:05;;;;;;;9.67;3.83;;;19.30;64.80;;;;;;5000719;28;20229;-94
2022/11/03 13:12:34;;;;;;;10.57;4.10;;;19.20;64.80;;;;;;5003481;28;20289;-92
2022/11/03 13:15:05;;;;;;;14.83;5.53;;;19.20;64.40;;;;;;4997073;28;20245;-92
2022/11/03 13:17:44;;;;;;;11.87;4.17;;;19.20;64.80;;;;;;4999742;28;20224;-95
2022/11/03 13:20:15;;;;;;;8.23;3.33;;;19.20;64.30;;;;;;4994878;28;20250;-91
2022/11/03 13:22:48;;;;;;;6.67;3.07;;;19.20;64.80;;;;;;5006181;28;20223;-91
2022/11/03 13:25:19;;;;;;;7.50;3.00;;;19.10;64.70;;;;;;5006284;28;20210;-94
2022/11/03 13:27:52;;;;;;;9.60;3.10;;;19.10;64.70;;;;;;5005792;28;20217;-92
2022/11/03 13:30:27;;;;;;;8.63;2.90;;;19.10;64.80;;;;;;5003691;28;20218;-91
2022/11/03 13:33:00;;;;;;;8.53;3.17;;;19.00;64.60;;;;;;5002673;28;20206;-94
2022/11/03 13:35:35;;;;;;;14.80;5.23;;;19.10;64.70;;;;;;5008185;28;20199;-91
2022/11/03 13:38:06;;;;;;;7.23;3.23;;;19.00;64.50;;;;;;4986380;28;20232;-94
2022/11/03 13:40:36;;;;;;;8.57;3.50;;;19.10;65.10;;;;;;4997282;28;20282;-92
2022/11/03 13:43:07;;;;;;;13.60;5.30;;;19.00;65.80;;;;;;4999804;28;20272;-94
2022/11/03 13:45:35;;;;;;;7.23;3.20;;;19.00;65.00;;;;;;5001165;28;20215;-91